Time;durP1;ratioP1;P1;durP2;ratioP2;P2;SDS_P1;SDS_P2;PMS_P1;PMS_P2;Temp;Humidity;BMP_temperature;BMP_pressure;BME280_temperature;BME280_humidity;BME280_pressure;Samples;Min_cycle;Max_cycle;Signal;HPM_P1;HPM_P2
2021/11/19 00:02:16;;;;;;;16.40;10.13;;;4.80;99.90;;;;;;5030533;28;20280;-60
2021/11/19 00:04:44;;;;;;;13.27;9.77;;;4.80;99.90;;;;;;5030387;28;20226;-60
2021/11/19 00:07:13;;;;;;;16.80;9.63;;;4.80;99.90;;;;;;5030477;28;20261;-60
2021/11/19 00:09:40;;;;;;;12.87;9.27;;;4.90;99.90;;;;;;5031562;28;20210;-59
2021/11/19 00:12:08;;;;;;;14.67;9.33;;;4.80;99.90;;;;;;5034970;28;20209;-60
2021/11/19 00:14:34;;;;;;;14.93;9.50;;;4.80;99.90;;;;;;5034485;28;20210;-60
2021/11/19 00:17:05;;;;;;;16.53;10.20;;;4.60;99.90;;;;;;5034649;28;20202;-60
2021/11/19 00:19:32;;;;;;;15.43;10.17;;;4.40;99.90;;;;;;5034412;28;20213;-61
2021/11/19 00:22:01;;;;;;;16.80;10.00;;;4.40;99.90;;;;;;5034798;28;20221;-60
2021/11/19 00:24:28;;;;;;;18.60;10.80;;;4.40;99.90;;;;;;5034397;28;20395;-60
2021/11/19 00:26:55;;;;;;;16.93;10.53;;;4.50;99.90;;;;;;5034726;28;20206;-60
2021/11/19 00:29:23;;;;;;;15.70;9.53;;;4.40;99.90;;;;;;5034254;28;20214;-60
2021/11/19 00:31:50;;;;;;;13.77;9.47;;;4.30;99.90;;;;;;5034283;28;20206;-60
2021/11/19 00:34:17;;;;;;;16.50;10.50;;;4.30;99.90;;;;;;5033887;28;20670;-60
2021/11/19 00:36:45;;;;;;;16.03;10.30;;;4.40;99.90;;;;;;5034364;28;20210;-61
2021/11/19 00:39:16;;;;;;;17.40;10.17;;;4.40;99.90;;;;;;5034026;28;20206;-60
2021/11/19 00:41:45;;;;;;;15.13;9.43;;;4.40;99.90;;;;;;5034089;28;20250;-60
2021/11/19 00:44:12;;;;;;;16.97;10.00;;;4.30;99.90;;;;;;5033710;28;20206;-60
2021/11/19 00:46:40;;;;;;;14.27;10.37;;;4.30;99.90;;;;;;5033687;28;20234;-60
2021/11/19 00:49:08;;;;;;;16.10;10.57;;;4.30;99.90;;;;;;5034056;28;20210;-60
2021/11/19 00:51:37;;;;;;;13.87;9.93;;;4.30;99.90;;;;;;5034176;28;20210;-60
2021/11/19 00:54:06;;;;;;;15.37;9.50;;;4.40;99.90;;;;;;5033984;28;20214;-60
2021/11/19 00:56:40;;;;;;;15.10;10.10;;;4.40;99.90;;;;;;5033591;28;20233;-60
2021/11/19 00:59:08;;;;;;;17.83;10.17;;;4.40;99.90;;;;;;5034143;28;20229;-61
2021/11/19 01:01:37;;;;;;;16.07;10.57;;;4.50;99.90;;;;;;5033793;28;20222;-60
2021/11/19 01:04:06;;;;;;;13.77;9.67;;;4.50;99.90;;;;;;5033595;28;20213;-60
2021/11/19 01:06:33;;;;;;;13.47;9.20;;;4.50;99.90;;;;;;5033641;28;20288;-60
2021/11/19 01:09:01;;;;;;;14.47;10.17;;;4.60;99.90;;;;;;5033498;28;20279;-61
2021/11/19 01:11:29;;;;;;;13.23;8.97;;;4.60;99.90;;;;;;5033989;28;20206;-60
2021/11/19 01:13:59;;;;;;;14.93;10.27;;;4.50;99.90;;;;;;5033285;28;20263;-60
2021/11/19 01:16:30;;;;;;;14.97;9.83;;;4.60;99.90;;;;;;5033638;28;20226;-61
2021/11/19 01:19:16;;;;;;;14.73;9.43;;;4.50;99.90;;;;;;5033364;28;20217;-60
2021/11/19 01:21:46;;;;;;;14.43;9.47;;;4.50;99.90;;;;;;5033385;28;20755;-60
2021/11/19 01:24:13;;;;;;;13.73;9.60;;;4.50;99.90;;;;;;5033648;28;20711;-60
2021/11/19 01:26:42;;;;;;;15.03;9.23;;;4.50;99.90;;;;;;5033506;28;20237;-60
2021/11/19 01:29:13;;;;;;;15.47;10.13;;;4.60;99.90;;;;;;5033560;28;20288;-60
2021/11/19 01:31:44;;;;;;;15.53;9.90;;;4.70;99.90;;;;;;5033475;28;20228;-60
2021/11/19 01:34:11;;;;;;;13.93;9.63;;;4.70;99.90;;;;;;5033123;28;20720;-60
2021/11/19 01:36:38;;;;;;;16.60;11.13;;;4.70;99.90;;;;;;5033008;28;20713;-60
2021/11/19 01:39:08;;;;;;;15.67;10.20;;;4.70;99.90;;;;;;5033228;28;20210;-60
2021/11/19 01:41:38;;;;;;;15.43;10.83;;;4.70;99.90;;;;;;5033315;28;20227;-60
2021/11/19 01:44:15;;;;;;;18.60;11.17;;;4.60;99.90;;;;;;5032917;28;20624;-60
2021/11/19 01:46:44;;;;;;;14.63;9.13;;;4.50;99.90;;;;;;5076270;23;20233;-62
2021/11/19 01:49:11;;;;;;;10.73;8.20;;;4.50;99.90;;;;;;5057612;28;20206;-61
2021/11/19 01:51:43;;;;;;;14.27;8.87;;;4.50;99.90;;;;;;5060465;28;20226;-62
2021/11/19 01:54:15;;;;;;;12.77;8.80;;;4.40;99.90;;;;;;5058399;28;20665;-62
2021/11/19 01:56:45;;;;;;;16.60;8.77;;;4.30;99.90;;;;;;5061177;28;20229;-63
2021/11/19 01:59:17;;;;;;;13.37;9.50;;;4.30;99.90;;;;;;5062742;28;20220;-62
2021/11/19 02:01:47;;;;;;;14.00;8.50;;;4.30;99.90;;;;;;5054528;28;20241;-62
2021/11/19 02:04:17;;;;;;;13.47;8.23;;;4.20;99.90;;;;;;5053197;28;20210;-62
2021/11/19 02:06:50;;;;;;;11.43;8.77;;;4.20;99.90;;;;;;5053242;28;20226;-62
2021/11/19 02:09:25;;;;;;;14.20;8.90;;;4.20;99.90;;;;;;5053026;28;20677;-62
2021/11/19 02:12:03;;;;;;;12.63;8.50;;;4.20;99.90;;;;;;5053533;28;20271;-62
2021/11/19 02:14:40;;;;;;;17.37;8.20;;;4.20;99.90;;;;;;5052848;28;20700;-61
2021/11/19 02:17:09;;;;;;;13.17;9.17;;;4.20;99.90;;;;;;5053078;28;20205;-61
2021/11/19 02:19:40;;;;;;;14.57;8.90;;;4.20;99.90;;;;;;5053016;28;20205;-61
2021/11/19 02:22:11;;;;;;;16.63;9.93;;;4.10;99.90;;;;;;5053137;28;20222;-61
2021/11/19 02:24:42;;;;;;;11.77;8.40;;;4.10;99.90;;;;;;5053023;28;20209;-61
2021/11/19 02:27:13;;;;;;;13.50;8.60;;;4.00;99.90;;;;;;5053377;28;20707;-61
2021/11/19 02:29:45;;;;;;;14.70;10.60;;;4.00;99.90;;;;;;5053631;28;20213;-61
2021/11/19 02:32:15;;;;;;;12.33;9.00;;;4.00;99.90;;;;;;5053105;28;20267;-61
2021/11/19 02:34:42;;;;;;;10.73;8.47;;;4.00;99.90;;;;;;5061760;28;20232;-62
2021/11/19 02:37:12;;;;;;;14.40;10.00;;;4.10;99.90;;;;;;5064453;28;20205;-62
2021/11/19 02:39:43;;;;;;;12.97;9.40;;;4.10;99.90;;;;;;5063946;28;20209;-61
2021/11/19 02:42:13;;;;;;;11.97;8.57;;;4.10;99.90;;;;;;5062472;28;20229;-62
2021/11/19 02:44:42;;;;;;;15.43;8.60;;;4.20;99.90;;;;;;5062091;28;20205;-62
2021/11/19 02:47:13;;;;;;;14.23;8.00;;;4.20;99.90;;;;;;5063212;28;20205;-62
2021/11/19 02:49:40;;;;;;;14.87;8.83;;;4.20;99.90;;;;;;5065006;28;20205;-61
2021/11/19 02:52:08;;;;;;;15.67;8.63;;;4.20;99.90;;;;;;5064645;28;20202;-62
2021/11/19 02:54:36;;;;;;;12.73;8.97;;;4.20;99.90;;;;;;5063257;28;20288;-62
2021/11/19 02:57:06;;;;;;;14.93;8.57;;;4.10;99.90;;;;;;5064203;28;20236;-63
2021/11/19 02:59:33;;;;;;;15.70;9.83;;;4.10;99.90;;;;;;5062206;28;20220;-62
2021/11/19 03:02:07;;;;;;;14.00;8.90;;;4.10;99.90;;;;;;5062709;28;20229;-62
2021/11/19 03:04:36;;;;;;;14.70;7.87;;;4.20;99.90;;;;;;5062044;28;20214;-62
2021/11/19 03:07:04;;;;;;;11.63;7.53;;;4.20;99.90;;;;;;5061252;28;20229;-62
2021/11/19 03:09:35;;;;;;;8.63;7.37;;;4.20;99.90;;;;;;5059969;28;20206;-62
2021/11/19 03:12:03;;;;;;;13.50;7.93;;;4.10;99.90;;;;;;5060564;28;20205;-62
2021/11/19 03:14:30;;;;;;;12.37;7.33;;;4.10;99.90;;;;;;5059512;28;20216;-62
2021/11/19 03:16:57;;;;;;;10.67;7.80;;;4.10;99.90;;;;;;5058818;28;20222;-62
2021/11/19 03:19:26;;;;;;;10.87;7.40;;;4.10;99.90;;;;;;5060482;28;20673;-62
2021/11/19 03:21:54;;;;;;;9.93;7.13;;;4.00;99.90;;;;;;5060678;28;20222;-62
2021/11/19 03:24:22;;;;;;;10.00;7.10;;;4.00;99.90;;;;;;5059338;28;20243;-62
2021/11/19 03:26:50;;;;;;;11.67;7.40;;;4.00;99.90;;;;;;5059994;28;20270;-62
2021/11/19 03:29:19;;;;;;;9.27;6.93;;;4.00;99.90;;;;;;5060666;28;20209;-62
2021/11/19 03:31:46;;;;;;;8.87;6.90;;;4.00;99.90;;;;;;5058645;28;20231;-62
2021/11/19 03:34:13;;;;;;;11.60;7.17;;;4.00;99.90;;;;;;5056590;28;20213;-62
2021/11/19 03:36:44;;;;;;;10.83;7.37;;;4.00;99.90;;;;;;5066380;28;20225;-62
2021/11/19 03:39:12;;;;;;;13.87;8.50;;;4.00;99.90;;;;;;5061460;28;20296;-62
2021/11/19 03:41:41;;;;;;;13.93;8.33;;;4.00;99.90;;;;;;5059745;28;20681;-62
2021/11/19 03:44:13;;;;;;;12.07;8.03;;;4.00;99.90;;;;;;5058305;28;20217;-62
2021/11/19 03:46:44;;;;;;;11.37;8.30;;;4.10;99.90;;;;;;5057786;28;20233;-62
2021/11/19 03:49:11;;;;;;;13.00;8.60;;;4.10;99.90;;;;;;5054502;28;20205;-62
2021/11/19 03:51:42;;;;;;;12.30;9.00;;;4.10;99.90;;;;;;5052608;28;20205;-62
2021/11/19 03:54:11;;;;;;;12.43;8.00;;;4.10;99.90;;;;;;5051681;28;20209;-62
2021/11/19 03:56:38;;;;;;;14.27;9.10;;;4.10;99.90;;;;;;5052337;28;20275;-62
2021/11/19 03:59:06;;;;;;;13.30;9.83;;;4.10;99.90;;;;;;5051736;28;20205;-62
2021/11/19 04:01:35;;;;;;;17.43;12.13;;;4.00;99.90;;;;;;5051594;28;20708;-62
2021/11/19 04:04:04;;;;;;;15.37;11.10;;;3.90;99.90;;;;;;5053590;28;20228;-62
2021/11/19 04:06:32;;;;;;;15.60;10.37;;;3.90;99.90;;;;;;5057933;28;20775;-62
2021/11/19 04:09:00;;;;;;;14.17;9.17;;;3.90;99.90;;;;;;5052184;28;20209;-62
2021/11/19 04:11:28;;;;;;;14.63;9.50;;;3.80;99.90;;;;;;5057115;28;20205;-62
2021/11/19 04:13:55;;;;;;;14.73;9.03;;;3.80;99.90;;;;;;5065042;28;20202;-62
2021/11/19 04:16:25;;;;;;;11.60;8.77;;;3.70;99.90;;;;;;5057081;28;20233;-61
2021/11/19 04:18:52;;;;;;;11.73;8.73;;;3.70;99.90;;;;;;5053537;28;20708;-61
2021/11/19 04:21:20;;;;;;;13.93;8.77;;;3.80;99.90;;;;;;5054749;28;20673;-61
2021/11/19 04:23:49;;;;;;;14.17;9.77;;;3.80;99.90;;;;;;5052305;28;20236;-61
2021/11/19 04:26:17;;;;;;;15.17;9.60;;;3.80;99.90;;;;;;5051754;28;20610;-61
2021/11/19 04:28:46;;;;;;;16.17;9.83;;;3.90;99.90;;;;;;5051578;28;20255;-61
2021/11/19 04:31:13;;;;;;;18.90;11.40;;;3.90;99.90;;;;;;5052025;28;20293;-61
2021/11/19 04:33:40;;;;;;;17.03;10.80;;;3.90;99.90;;;;;;5051349;28;20208;-61
2021/11/19 04:36:08;;;;;;;16.07;9.77;;;3.90;99.90;;;;;;5051358;28;20736;-61
2021/11/19 04:38:35;;;;;;;13.40;9.30;;;3.90;99.90;;;;;;5051240;28;20252;-61
2021/11/19 04:41:03;;;;;;;16.27;9.90;;;3.90;99.90;;;;;;5051576;28;20203;-62
2021/11/19 04:43:32;;;;;;;12.83;9.07;;;3.90;99.90;;;;;;5051609;28;20229;-61
2021/11/19 04:46:00;;;;;;;15.97;8.90;;;3.90;99.90;;;;;;5052246;28;20234;-62
2021/11/19 04:48:31;;;;;;;13.03;9.27;;;3.90;99.90;;;;;;5060048;28;20202;-61
2021/11/19 04:50:58;;;;;;;15.00;9.27;;;3.80;99.90;;;;;;5062542;28;20209;-62
2021/11/19 04:53:27;;;;;;;12.80;8.67;;;3.80;99.90;;;;;;5061104;28;20205;-62
2021/11/19 04:55:54;;;;;;;13.27;9.50;;;3.70;99.90;;;;;;5061683;28;20221;-61
2021/11/19 04:58:21;;;;;;;10.60;8.73;;;3.70;99.90;;;;;;5061722;28;20201;-62
2021/11/19 05:00:52;;;;;;;13.90;9.13;;;3.70;99.90;;;;;;5062227;28;20473;-62
2021/11/19 05:03:19;;;;;;;10.53;7.50;;;3.70;99.90;;;;;;5064200;28;20287;-62
2021/11/19 05:05:48;;;;;;;10.27;7.60;;;3.70;99.90;;;;;;5062532;28;20724;-62
2021/11/19 05:08:15;;;;;;;14.63;8.33;;;3.70;99.90;;;;;;5063132;28;20759;-62
2021/11/19 05:10:44;;;;;;;11.77;7.53;;;3.60;99.90;;;;;;5063473;28;20216;-62
2021/11/19 05:13:11;;;;;;;11.63;7.80;;;3.60;99.90;;;;;;5065543;28;20206;-62
2021/11/19 05:15:41;;;;;;;12.53;7.70;;;3.50;99.90;;;;;;5068727;28;20240;-62
2021/11/19 05:18:10;;;;;;;11.20;7.83;;;3.50;99.90;;;;;;5068450;28;20231;-62
2021/11/19 05:20:37;;;;;;;12.37;7.90;;;3.60;99.90;;;;;;5067277;28;20236;-61
2021/11/19 05:23:04;;;;;;;11.27;8.60;;;3.60;99.90;;;;;;5066684;28;20222;-61
2021/11/19 05:25:34;;;;;;;12.47;8.67;;;3.70;99.90;;;;;;5066630;28;20221;-62
2021/11/19 05:28:01;;;;;;;10.03;7.93;;;3.90;99.90;;;;;;5066561;28;20205;-62
2021/11/19 05:30:28;;;;;;;9.97;7.83;;;4.10;99.90;;;;;;5064626;28;20676;-62
2021/11/19 05:32:55;;;;;;;10.27;7.70;;;4.20;99.90;;;;;;5061583;28;20700;-62
2021/11/19 05:35:24;;;;;;;9.53;7.83;;;4.30;99.90;;;;;;5054650;28;20229;-62
2021/11/19 05:37:51;;;;;;;11.37;8.57;;;4.40;99.90;;;;;;5054173;28;20708;-61
2021/11/19 05:40:20;;;;;;;13.40;8.30;;;4.40;99.90;;;;;;5054059;28;20205;-62
2021/11/19 05:42:48;;;;;;;13.53;8.90;;;4.60;99.90;;;;;;5053780;28;20311;-61
2021/11/19 05:45:17;;;;;;;12.90;8.30;;;4.80;99.90;;;;;;5053495;28;20237;-62
2021/11/19 05:47:43;;;;;;;9.43;7.47;;;4.80;99.90;;;;;;5053304;28;20209;-62
2021/11/19 05:50:12;;;;;;;11.57;7.47;;;4.90;99.90;;;;;;5053327;28;20629;-62
2021/11/19 05:52:41;;;;;;;10.20;7.03;;;5.00;99.90;;;;;;5053365;28;20641;-62
2021/11/19 05:55:12;;;;;;;9.50;7.00;;;5.10;99.90;;;;;;5052940;28;20287;-62
2021/11/19 05:57:39;;;;;;;8.60;6.83;;;5.10;99.90;;;;;;5053193;28;20201;-62
2021/11/19 06:00:10;;;;;;;10.93;8.17;;;5.10;99.90;;;;;;5053327;28;20256;-62
2021/11/19 06:02:37;;;;;;;9.20;6.97;;;5.00;99.90;;;;;;5053747;28;20214;-62
2021/11/19 06:05:05;;;;;;;8.83;7.33;;;5.00;99.90;;;;;;5053121;28;20279;-62
2021/11/19 06:07:32;;;;;;;10.90;8.00;;;4.90;99.90;;;;;;5052287;28;20217;-62
2021/11/19 06:10:01;;;;;;;11.80;8.33;;;4.90;99.90;;;;;;5053038;28;20206;-62
2021/11/19 06:12:32;;;;;;;11.87;8.60;;;4.80;99.90;;;;;;5053494;28;20262;-62
2021/11/19 06:15:00;;;;;;;10.87;8.20;;;4.80;99.90;;;;;;5052681;28;20739;-62
2021/11/19 06:17:31;;;;;;;10.20;7.93;;;4.90;99.90;;;;;;5052657;28;20201;-62
2021/11/19 06:20:01;;;;;;;9.40;7.10;;;5.00;99.90;;;;;;5052682;28;20213;-63
2021/11/19 06:22:33;;;;;;;12.17;7.43;;;5.10;99.90;;;;;;5053225;28;20308;-62
2021/11/19 06:25:01;;;;;;;11.30;7.60;;;5.10;99.90;;;;;;5052452;28;20233;-62
2021/11/19 06:27:32;;;;;;;14.50;9.13;;;5.20;99.90;;;;;;5052407;28;20209;-62
2021/11/19 06:30:00;;;;;;;12.17;9.17;;;5.30;99.90;;;;;;5052256;28;20209;-62
2021/11/19 06:32:28;;;;;;;12.27;9.10;;;5.40;99.90;;;;;;5052244;28;20213;-62
2021/11/19 06:34:55;;;;;;;15.83;9.60;;;5.60;99.90;;;;;;5052036;28;20232;-62
2021/11/19 06:37:22;;;;;;;13.63;9.57;;;5.70;99.90;;;;;;5055782;28;20202;-62
2021/11/19 06:39:49;;;;;;;8.87;7.47;;;5.80;99.90;;;;;;5054064;28;20210;-63
2021/11/19 06:42:17;;;;;;;12.07;8.30;;;5.90;99.90;;;;;;5052227;28;20694;-63
2021/11/19 06:44:46;;;;;;;12.83;8.30;;;6.00;99.90;;;;;;5051456;28;20728;-63
2021/11/19 06:47:13;;;;;;;9.73;7.80;;;6.10;99.90;;;;;;5051756;28;20205;-63
2021/11/19 06:49:41;;;;;;;10.67;8.20;;;6.20;99.90;;;;;;5051928;28;20213;-63
2021/11/19 06:52:08;;;;;;;12.07;8.03;;;6.30;99.90;;;;;;5052165;28;20220;-63
2021/11/19 06:54:36;;;;;;;13.37;8.60;;;6.20;99.90;;;;;;5051669;28;20208;-63
2021/11/19 06:57:04;;;;;;;10.13;8.23;;;6.20;99.90;;;;;;5051785;28;20250;-62
2021/11/19 06:59:32;;;;;;;10.50;8.07;;;6.20;99.90;;;;;;5051537;28;20623;-63
2021/11/19 07:01:59;;;;;;;10.40;8.27;;;6.10;99.90;;;;;;5061019;28;20240;-62
2021/11/19 07:04:26;;;;;;;11.00;7.97;;;6.20;99.90;;;;;;5065400;28;20236;-63
2021/11/19 07:06:52;;;;;;;10.53;8.27;;;6.20;99.90;;;;;;5064053;28;20226;-63
2021/11/19 07:09:20;;;;;;;15.23;9.53;;;6.30;99.90;;;;;;5052629;28;20232;-63
2021/11/19 07:11:48;;;;;;;14.37;9.83;;;6.40;99.90;;;;;;5051983;28;20583;-63
2021/11/19 07:14:15;;;;;;;12.70;8.47;;;6.50;99.90;;;;;;5051790;28;20217;-63
2021/11/19 07:16:43;;;;;;;10.90;8.17;;;6.50;99.90;;;;;;5052021;28;20307;-63
2021/11/19 07:19:11;;;;;;;9.67;8.03;;;6.60;99.90;;;;;;5051621;28;20205;-62
2021/11/19 07:21:40;;;;;;;11.57;8.53;;;6.60;99.90;;;;;;5051802;28;20343;-62
2021/11/19 07:24:08;;;;;;;15.33;11.07;;;6.50;99.90;;;;;;5051107;28;20243;-62
2021/11/19 07:26:35;;;;;;;13.07;8.70;;;6.50;99.90;;;;;;5050900;28;20237;-61
2021/11/19 07:29:03;;;;;;;10.73;8.27;;;6.60;99.90;;;;;;5051166;28;20209;-62
2021/11/19 07:31:30;;;;;;;11.20;9.03;;;6.50;99.90;;;;;;5051230;28;20202;-62
2021/11/19 07:33:58;;;;;;;13.30;9.57;;;6.50;99.90;;;;;;5050932;28;20213;-62
2021/11/19 07:36:25;;;;;;;12.60;8.10;;;6.60;99.90;;;;;;5051239;28;20236;-61
2021/11/19 07:38:55;;;;;;;13.37;9.60;;;6.70;99.90;;;;;;5050747;28;20210;-62
2021/11/19 07:41:23;;;;;;;11.57;8.17;;;6.80;99.90;;;;;;5050667;28;20214;-62
2021/11/19 07:43:50;;;;;;;11.43;8.37;;;7.00;99.90;;;;;;5050444;28;20620;-62
2021/11/19 07:46:22;;;;;;;10.50;8.63;;;7.10;99.90;;;;;;5051269;28;20229;-62
2021/11/19 07:48:50;;;;;;;11.27;8.57;;;7.20;99.90;;;;;;5050861;28;20213;-62
2021/11/19 07:51:21;;;;;;;14.87;10.37;;;7.20;99.90;;;;;;5050684;28;20763;-62
2021/11/19 07:53:49;;;;;;;11.00;8.93;;;7.30;99.90;;;;;;5050661;28;20358;-62
2021/11/19 07:56:19;;;;;;;14.07;10.23;;;7.30;99.90;;;;;;5050853;28;20263;-62
2021/11/19 07:58:47;;;;;;;16.67;11.37;;;7.40;99.90;;;;;;5050600;28;20300;-63
2021/11/19 08:01:14;;;;;;;12.97;9.97;;;7.60;99.90;;;;;;5050834;28;20240;-62
2021/11/19 08:03:42;;;;;;;11.30;8.93;;;7.70;99.90;;;;;;5050509;28;20225;-63
2021/11/19 08:06:10;;;;;;;13.47;8.20;;;7.80;99.90;;;;;;5050470;28;20228;-61
2021/11/19 08:08:40;;;;;;;13.87;9.20;;;8.00;99.90;;;;;;5051190;28;20213;-63
2021/11/19 08:11:10;;;;;;;14.57;9.40;;;8.10;99.90;;;;;;5051022;28;20267;-63
2021/11/19 08:13:37;;;;;;;11.30;9.40;;;8.20;99.90;;;;;;5050691;28;20218;-63
2021/11/19 08:16:04;;;;;;;12.03;8.93;;;8.30;99.90;;;;;;5050608;28;20248;-63
2021/11/19 08:18:36;;;;;;;14.57;9.63;;;8.30;99.90;;;;;;5050568;28;20676;-63
2021/11/19 08:21:03;;;;;;;14.10;9.97;;;8.40;99.90;;;;;;5050713;28;20190;-63
2021/11/19 08:23:34;;;;;;;13.03;9.20;;;8.50;99.90;;;;;;5050235;28;20228;-63
2021/11/19 08:26:05;;;;;;;11.97;8.93;;;8.40;99.90;;;;;;5050575;28;20244;-63
2021/11/19 08:28:34;;;;;;;14.17;8.53;;;8.40;99.90;;;;;;5050416;28;20209;-63
2021/11/19 08:31:03;;;;;;;15.97;10.60;;;8.30;99.90;;;;;;5051884;28;20213;-63
2021/11/19 08:33:30;;;;;;;13.47;9.97;;;8.30;99.90;;;;;;5054121;28;20216;-63
2021/11/19 08:35:57;;;;;;;14.43;10.27;;;8.40;99.90;;;;;;5054282;28;20226;-63
2021/11/19 08:38:25;;;;;;;14.80;10.50;;;8.50;99.90;;;;;;5054090;28;20228;-63
2021/11/19 08:40:53;;;;;;;19.63;13.07;;;8.50;99.90;;;;;;5054101;28;20883;-63
2021/11/19 08:43:24;;;;;;;26.63;18.53;;;8.50;99.90;;;;;;5054122;28;20255;-64
2021/11/19 08:45:53;;;;;;;13.40;10.17;;;8.60;99.90;;;;;;5054062;28;20314;-64
2021/11/19 08:48:21;;;;;;;19.87;11.43;;;8.70;99.90;;;;;;5054168;28;20232;-64
2021/11/19 08:50:48;;;;;;;21.90;14.10;;;8.90;99.90;;;;;;5054136;28;20201;-64
2021/11/19 08:53:17;;;;;;;13.23;8.23;;;9.00;99.90;;;;;;5054153;28;20205;-64
2021/11/19 08:55:46;;;;;;;14.87;9.40;;;8.80;99.90;;;;;;5053812;28;20379;-64
2021/11/19 08:58:14;;;;;;;18.70;12.07;;;8.70;99.90;;;;;;5053635;28;20262;-64
2021/11/19 09:00:45;;;;;;;19.00;11.30;;;8.80;99.90;;;;;;5053912;28;20347;-64
2021/11/19 09:03:12;;;;;;;16.73;10.50;;;9.10;99.90;;;;;;5054130;28;20205;-64
2021/11/19 09:05:43;;;;;;;10.70;8.13;;;9.30;99.90;;;;;;5053793;28;20225;-64
2021/11/19 09:08:12;;;;;;;11.98;8.75;;;9.40;99.90;;;;;;5051531;28;20448;-64
2021/11/19 09:10:39;;;;;;;12.77;7.77;;;9.30;99.90;;;;;;5054059;28;20202;-70
2021/11/19 09:13:07;;;;;;;12.73;8.40;;;9.50;99.90;;;;;;5053876;28;20217;-68
2021/11/19 09:15:35;;;;;;;16.23;9.63;;;9.70;99.90;;;;;;5044379;28;20225;-66
2021/11/19 09:18:09;;;;;;;15.60;8.57;;;9.90;99.90;;;;;;5053650;28;20264;-67
2021/11/19 09:20:50;;;;;;;10.93;7.60;;;10.20;99.90;;;;;;5044964;28;20205;-66
2021/11/19 09:23:20;;;;;;;12.07;8.60;;;10.40;99.90;;;;;;5033410;28;20612;-66
2021/11/19 09:25:49;;;;;;;11.50;8.23;;;10.50;99.90;;;;;;5047398;28;20635;-67
2021/11/19 09:28:18;;;;;;;13.27;7.57;;;10.60;99.90;;;;;;5053487;28;20213;-66
2021/11/19 09:30:47;;;;;;;14.60;8.53;;;10.70;99.90;;;;;;5053275;28;20643;-66
2021/11/19 09:33:18;;;;;;;12.80;7.93;;;10.70;99.90;;;;;;5053357;28;20692;-66
2021/11/19 09:35:45;;;;;;;13.90;8.33;;;10.80;99.90;;;;;;5052871;28;20222;-66
2021/11/19 09:38:14;;;;;;;13.53;8.63;;;10.80;99.90;;;;;;5053051;28;20210;-66
2021/11/19 09:40:44;;;;;;;13.30;8.47;;;10.80;99.90;;;;;;5053045;28;20205;-66
2021/11/19 09:43:20;;;;;;;15.23;10.03;;;10.80;99.90;;;;;;5051835;28;20202;-66
2021/11/19 09:46:12;;;;;;;15.37;8.73;;;10.80;99.90;;;;;;5052521;28;20237;-66
2021/11/19 09:48:59;;;;;;;16.30;10.93;;;10.90;99.90;;;;;;5036045;28;20623;-66
2021/11/19 09:52:14;;;;;;;16.37;9.67;;;11.00;99.90;;;;;;5053118;28;20221;-66
2021/11/19 09:55:34;;;;;;;14.17;9.60;;;11.10;99.90;;;;;;5051138;28;20224;-66
2021/11/19 09:58:33;;;;;;;17.80;10.03;;;11.20;99.90;;;;;;4939572;28;20219;-66
2021/11/19 10:01:27;;;;;;;20.27;10.70;;;11.30;99.90;;;;;;4971100;28;20591;-65
2021/11/19 10:04:30;;;;;;;16.90;9.13;;;11.40;99.90;;;;;;5007324;28;20316;-66
2021/11/19 10:07:04;;;;;;;15.63;9.30;;;11.40;99.90;;;;;;5052090;28;20232;-65
2021/11/19 10:09:39;;;;;;;16.27;9.07;;;11.30;99.90;;;;;;5052380;28;20640;-66
2021/11/19 10:12:10;;;;;;;14.70;9.50;;;10.90;99.90;;;;;;5052399;28;20209;-66
2021/11/19 10:14:45;;;;;;;16.53;9.00;;;10.50;99.90;;;;;;5052121;28;20205;-66
2021/11/19 10:17:30;;;;;;;16.93;9.67;;;10.40;99.90;;;;;;5052097;28;20208;-65
2021/11/19 10:20:00;;;;;;;16.40;9.20;;;10.40;99.90;;;;;;5044624;28;20211;-67
2021/11/19 10:22:31;;;;;;;15.73;10.00;;;10.50;99.90;;;;;;5032339;28;20300;-65
2021/11/19 10:25:08;;;;;;;14.00;9.13;;;10.50;99.90;;;;;;5031889;28;20226;-63
2021/11/19 10:27:38;;;;;;;16.67;9.33;;;10.70;99.90;;;;;;5031822;28;20214;-64
2021/11/19 10:30:27;;;;;;;15.17;10.17;;;10.80;99.90;;;;;;5031777;28;20213;-63
2021/11/19 10:32:56;;;;;;;15.43;10.20;;;10.90;99.90;;;;;;5032060;28;20238;-64
2021/11/19 10:35:57;;;;;;;14.80;10.00;;;10.90;99.90;;;;;;5031653;28;20222;-63
2021/11/19 10:39:06;;;;;;;17.50;9.63;;;11.00;99.90;;;;;;5031636;28;20276;-63
2021/11/19 10:42:06;;;;;;;13.97;9.40;;;11.20;99.90;;;;;;5031876;28;20701;-63
2021/11/19 10:44:49;;;;;;;13.53;10.33;;;11.00;99.90;;;;;;5031745;28;20308;-63
2021/11/19 10:47:27;;;;;;;16.63;9.33;;;11.00;99.90;;;;;;5032010;28;20206;-63
2021/11/19 10:50:30;;;;;;;16.47;9.80;;;10.90;99.90;;;;;;5031972;28;20213;-63
2021/11/19 10:53:30;;;;;;;14.90;9.27;;;11.00;99.90;;;;;;5031382;28;20210;-63
2021/11/19 10:56:29;;;;;;;15.87;10.03;;;11.00;99.90;;;;;;5031796;28;20226;-62
2021/11/19 10:58:58;;;;;;;15.00;9.70;;;10.80;99.90;;;;;;5031600;28;20206;-62
2021/11/19 11:01:37;;;;;;;15.07;10.13;;;10.40;99.90;;;;;;5032109;28;20210;-61
2021/11/19 11:04:19;;;;;;;15.93;10.27;;;9.90;99.90;;;;;;5031719;28;20684;-61
2021/11/19 11:06:52;;;;;;;16.20;10.37;;;9.90;99.90;;;;;;5031556;28;20226;-62
2021/11/19 11:09:28;;;;;;;16.60;11.07;;;9.80;99.90;;;;;;5031669;28;20206;-61
2021/11/19 11:12:07;;;;;;;16.33;11.20;;;10.00;99.90;;;;;;5031459;28;20260;-61
2021/11/19 11:14:35;;;;;;;17.83;10.50;;;10.00;99.90;;;;;;5031549;28;20206;-60
2021/11/19 11:17:20;;;;;;;13.87;9.73;;;9.70;99.90;;;;;;5030911;28;20226;-61
2021/11/19 11:19:48;;;;;;;15.53;10.13;;;9.60;99.90;;;;;;5031154;28;20210;-59
2021/11/19 11:22:18;;;;;;;19.20;10.30;;;9.60;99.90;;;;;;5030989;28;20219;-59
2021/11/19 11:24:51;;;;;;;18.13;10.20;;;9.90;99.90;;;;;;5030977;28;20222;-59
2021/11/19 11:27:37;;;;;;;13.30;9.47;;;10.00;99.90;;;;;;5031253;28;20217;-59
2021/11/19 11:30:08;;;;;;;13.47;9.93;;;10.10;99.90;;;;;;5031080;28;20716;-59
2021/11/19 11:32:59;;;;;;;18.93;10.37;;;9.80;99.90;;;;;;5031399;28;20210;-59
2021/11/19 11:35:38;;;;;;;14.67;9.93;;;9.70;99.90;;;;;;5031008;28;20222;-60
2021/11/19 11:38:28;;;;;;;14.37;9.90;;;9.50;99.90;;;;;;5030996;28;20222;-61
2021/11/19 11:41:10;;;;;;;18.87;11.80;;;9.30;99.90;;;;;;5030716;28;20664;-60
2021/11/19 11:43:39;;;;;;;17.50;10.47;;;9.60;99.90;;;;;;5030697;28;20218;-60
2021/11/19 11:46:28;;;;;;;14.60;10.63;;;9.80;99.90;;;;;;5030374;28;20274;-60
2021/11/19 11:49:17;;;;;;;18.47;10.70;;;9.90;99.90;;;;;;5030943;28;20210;-60
2021/11/19 11:51:51;;;;;;;14.73;10.30;;;10.10;99.90;;;;;;5027997;28;20210;-59
2021/11/19 11:54:25;;;;;;;17.17;11.00;;;10.30;99.90;;;;;;5030784;28;20241;-59
2021/11/19 11:57:16;;;;;;;18.27;11.17;;;10.50;99.90;;;;;;5030390;28;20236;-58
2021/11/19 11:59:52;;;;;;;17.80;11.10;;;10.60;99.90;;;;;;5030235;28;20297;-59
2021/11/19 12:02:30;;;;;;;17.87;10.87;;;10.70;99.90;;;;;;5030331;28;20668;-59
2021/11/19 12:05:11;;;;;;;16.63;10.33;;;10.90;99.90;;;;;;5029964;28;20666;-59
2021/11/19 12:07:48;;;;;;;17.10;11.10;;;11.10;99.90;;;;;;5034204;28;20222;-59
2021/11/19 12:10:24;;;;;;;20.00;11.80;;;11.10;99.90;;;;;;5034542;28;20210;-58
2021/11/19 12:13:00;;;;;;;14.80;10.50;;;10.90;99.90;;;;;;5034431;28;20580;-58
2021/11/19 12:15:33;;;;;;;19.57;11.03;;;10.70;99.90;;;;;;5034200;28;20225;-59
2021/11/19 12:18:08;;;;;;;15.00;10.70;;;10.20;99.90;;;;;;5034084;28;20213;-59
2021/11/19 12:20:49;;;;;;;17.30;10.43;;;10.10;99.90;;;;;;5034233;28;20701;-59
2021/11/19 12:23:25;;;;;;;19.73;12.07;;;10.40;99.90;;;;;;5034102;28;20234;-59
2021/11/19 12:26:07;;;;;;;15.43;10.77;;;10.60;99.90;;;;;;5034092;28;20233;-59
2021/11/19 12:28:39;;;;;;;14.83;10.23;;;10.80;99.90;;;;;;5034145;28;20209;-59
2021/11/19 12:31:13;;;;;;;16.20;10.10;;;10.90;99.90;;;;;;5037006;28;20622;-60
2021/11/19 12:33:43;;;;;;;19.37;10.33;;;10.90;99.90;;;;;;5053615;28;20617;-61
2021/11/19 12:36:13;;;;;;;16.83;10.80;;;10.90;99.90;;;;;;5054025;28;20230;-64
2021/11/19 12:38:42;;;;;;;21.67;11.50;;;10.90;99.90;;;;;;5054755;28;20217;-62
2021/11/19 12:41:16;;;;;;;16.33;11.50;;;10.90;99.90;;;;;;5055384;28;20202;-63
2021/11/19 12:44:24;;;;;;;15.20;10.80;;;10.90;99.90;;;;;;5053668;28;20210;-63
2021/11/19 12:47:02;;;;;;;20.47;11.40;;;11.00;99.90;;;;;;4951178;29;20468;-63
2021/11/19 12:49:54;;;;;;;18.33;11.37;;;10.90;99.90;;;;;;5043116;28;20669;-63
2021/11/19 12:52:25;;;;;;;17.93;12.03;;;10.70;99.90;;;;;;5052073;28;20205;-63
2021/11/19 12:55:10;;;;;;;17.63;11.93;;;10.70;99.90;;;;;;5051727;28;20197;-62
2021/11/19 12:57:51;;;;;;;20.20;11.53;;;10.70;99.90;;;;;;5051700;28;20267;-63
2021/11/19 13:00:31;;;;;;;19.27;11.43;;;10.90;99.90;;;;;;5051861;28;20640;-63
2021/11/19 13:03:22;;;;;;;18.37;11.60;;;11.00;99.90;;;;;;5051693;28;20209;-63
2021/11/19 13:06:17;;;;;;;35.93;23.90;;;10.90;99.90;;;;;;5051433;28;20229;-63